Time;durP1;ratioP1;P1;durP2;ratioP2;P2;SDS_P1;SDS_P2;PMS_P1;PMS_P2;Temp;Humidity;BMP_temperature;BMP_pressure;BME280_temperature;BME280_humidity;BME280_pressure;Samples;Min_cycle;Max_cycle;Signal;HPM_P1;HPM_P2
2023/01/14 00:01:51;;;;;;;3.13;2.23;;;8.10;99.90;;;;;;5025676;28;20301;-89
2023/01/14 00:04:17;;;;;;;0.33;0.33;;;8.00;99.90;;;;;;5055421;28;20588;-92
2023/01/14 00:06:43;;;;;;;0.63;0.63;;;8.00;99.90;;;;;;5051917;28;20248;-87
2023/01/14 00:09:13;;;;;;;0.57;0.57;;;8.00;99.90;;;;;;5023584;28;20221;-90
2023/01/14 00:11:51;;;;;;;0.43;0.43;;;8.00;99.90;;;;;;5056482;28;20240;-88
2023/01/14 00:14:21;;;;;;;0.20;0.20;;;8.10;99.90;;;;;;5039844;28;20214;-89
2023/01/14 00:16:48;;;;;;;3.00;1.50;;;8.10;99.90;;;;;;5052443;28;20218;-90
2023/01/14 00:19:14;;;;;;;1.40;0.40;;;8.20;99.90;;;;;;5039066;28;20209;-90
2023/01/14 00:21:41;;;;;;;3.00;1.27;;;8.20;99.90;;;;;;5061259;28;21049;-90
2023/01/14 00:24:08;;;;;;;0.63;0.63;;;8.20;99.90;;;;;;5051985;28;20666;-90
2023/01/14 00:26:34;;;;;;;1.13;1.13;;;8.20;99.90;;;;;;5054365;28;20304;-89
2023/01/14 00:28:59;;;;;;;7.43;1.30;;;8.20;99.90;;;;;;5054440;28;20303;-89
2023/01/14 00:31:27;;;;;;;0.43;0.43;;;8.20;99.90;;;;;;5038107;28;20186;-90
2023/01/14 00:33:54;;;;;;;2.30;2.20;;;8.30;99.90;;;;;;5047536;28;20282;-89
2023/01/14 00:36:23;;;;;;;3.20;0.60;;;8.30;99.90;;;;;;5054973;28;20730;-89
2023/01/14 00:38:50;;;;;;;1.70;1.20;;;8.30;99.90;;;;;;5052168;28;20252;-90
2023/01/14 00:41:22;;;;;;;0.87;0.87;;;8.30;99.90;;;;;;5057347;28;20221;-89
2023/01/14 00:43:51;;;;;;;0.33;0.33;;;8.30;99.90;;;;;;5062899;28;20225;-89
2023/01/14 00:46:20;;;;;;;0.93;0.93;;;8.30;99.90;;;;;;5055066;28;20186;-89
2023/01/14 00:48:46;;;;;;;1.80;0.90;;;8.40;99.90;;;;;;5051852;28;20214;-90
2023/01/14 00:51:13;;;;;;;4.00;1.10;;;8.30;99.90;;;;;;5032642;28;20225;-89
2023/01/14 00:53:40;;;;;;;1.50;1.23;;;8.40;99.90;;;;;;5057036;28;20221;-89
2023/01/14 00:56:07;;;;;;;0.70;0.70;;;8.40;99.90;;;;;;5041132;28;20270;-89
2023/01/14 00:58:33;;;;;;;0.70;0.70;;;8.40;99.90;;;;;;5020087;28;20650;-89
2023/01/14 01:00:59;;;;;;;4.67;0.80;;;8.40;99.90;;;;;;5040344;28;20235;-90
2023/01/14 01:03:25;;;;;;;0.20;0.20;;;8.50;99.90;;;;;;5054195;28;20218;-88
2023/01/14 01:05:51;;;;;;;0.20;0.20;;;8.50;99.90;;;;;;5052844;28;20232;-90
2023/01/14 01:08:19;;;;;;;7.67;0.60;;;8.50;99.90;;;;;;5054843;28;20222;-90
2023/01/14 01:10:47;;;;;;;5.70;1.33;;;8.50;99.90;;;;;;5036659;28;20202;-90
2023/01/14 01:13:13;;;;;;;1.50;0.53;;;8.50;99.90;;;;;;5053957;28;20184;-91
2023/01/14 01:15:40;;;;;;;1.30;1.07;;;8.40;99.90;;;;;;5077430;28;20226;-90
2023/01/14 01:18:07;;;;;;;1.80;1.67;;;8.40;99.90;;;;;;5054935;28;20228;-90
2023/01/14 01:20:33;;;;;;;0.83;0.40;;;8.40;99.90;;;;;;5054007;28;20225;-90
2023/01/14 01:23:00;;;;;;;1.50;1.23;;;8.40;99.90;;;;;;5054945;28;20218;-90
2023/01/14 01:25:26;;;;;;;8.40;2.57;;;8.30;99.90;;;;;;5042025;28;20273;-90
2023/01/14 01:27:54;;;;;;;8.97;2.23;;;8.30;99.90;;;;;;5037654;28;20217;-90
2023/01/14 01:30:20;;;;;;;1.47;1.40;;;8.20;99.90;;;;;;5049554;28;20240;-90
2023/01/14 01:32:46;;;;;;;4.17;0.53;;;8.20;99.90;;;;;;5049379;28;20263;-91
2023/01/14 01:35:12;;;;;;;5.80;3.83;;;8.20;99.90;;;;;;5021923;28;20221;-90
2023/01/14 01:37:38;;;;;;;4.40;1.13;;;8.20;99.90;;;;;;5037161;28;20474;-90
2023/01/14 01:40:05;;;;;;;5.10;1.47;;;8.20;99.90;;;;;;5022703;28;20241;-90
2023/01/14 01:42:34;;;;;;;6.60;1.90;;;8.20;99.90;;;;;;5048531;28;20275;-90
2023/01/14 01:45:25;;;;;;;2.00;0.93;;;8.20;99.90;;;;;;5053025;28;20708;-90
2023/01/14 01:47:56;;;;;;;1.23;0.80;;;8.10;99.90;;;;;;5054866;28;20296;-91
2023/01/14 01:50:22;;;;;;;2.97;1.63;;;8.10;99.90;;;;;;5053080;28;20233;-89
2023/01/14 01:52:48;;;;;;;1.70;1.53;;;8.00;99.90;;;;;;5035810;28;20218;-89
2023/01/14 01:55:15;;;;;;;3.03;1.00;;;8.00;99.90;;;;;;5036664;28;20200;-89
2023/01/14 01:57:42;;;;;;;0.30;0.30;;;7.90;99.90;;;;;;5036166;28;20221;-88
2023/01/14 02:00:09;;;;;;;0.93;0.90;;;7.90;99.90;;;;;;5041279;28;20228;-90
2023/01/14 02:02:35;;;;;;;1.77;1.67;;;7.90;99.90;;;;;;5054935;28;20231;-91
2023/01/14 02:05:02;;;;;;;5.43;1.10;;;8.00;99.90;;;;;;5052451;28;20217;-90
2023/01/14 02:07:28;;;;;;;1.80;1.70;;;8.00;99.90;;;;;;5052372;28;20178;-90
2023/01/14 02:09:58;;;;;;;2.90;2.50;;;8.00;99.90;;;;;;5053603;28;20283;-90
2023/01/14 02:12:46;;;;;;;0.23;0.23;;;8.00;99.90;;;;;;5056240;28;20394;-90
2023/01/14 02:15:26;;;;;;;1.20;1.20;;;7.90;99.90;;;;;;5056237;28;20232;-90
2023/01/14 02:18:26;;;;;;;0.27;0.27;;;7.90;99.90;;;;;;5056777;28;20213;-90
2023/01/14 02:21:25;;;;;;;5.70;1.30;;;7.90;99.90;;;;;;5054303;28;20229;-90
2023/01/14 02:24:12;;;;;;;1.00;1.00;;;7.90;99.90;;;;;;5056500;28;20308;-91
2023/01/14 02:27:15;;;;;;;0.67;0.67;;;7.90;99.90;;;;;;5060871;28;20221;-90
2023/01/14 02:30:12;;;;;;;0.93;0.57;;;7.90;99.90;;;;;;5055335;28;20749;-90
2023/01/14 02:32:53;;;;;;;2.63;0.80;;;7.90;99.90;;;;;;5062320;28;20442;-91
2023/01/14 02:35:40;;;;;;;2.10;1.13;;;7.90;99.90;;;;;;5054218;28;20237;-91
2023/01/14 02:38:17;;;;;;;12.20;2.13;;;7.90;99.90;;;;;;5060578;28;20233;-91
2023/01/14 02:41:04;;;;;;;0.97;0.50;;;7.90;99.90;;;;;;5059449;28;20327;-90
2023/01/14 02:46:32;;;;;;;0.43;0.43;;;7.90;99.90;;;;;;5054175;28;20343;-89
2023/01/14 02:49:01;;;;;;;9.80;1.80;;;7.80;99.90;;;;;;5056974;28;20245;-90
2023/01/14 02:51:27;;;;;;;0.77;0.77;;;7.80;99.90;;;;;;5059541;28;20228;-90
2023/01/14 02:53:53;;;;;;;2.40;2.00;;;7.70;99.90;;;;;;5041062;28;20209;-89
2023/01/14 02:56:19;;;;;;;9.67;2.87;;;7.70;99.90;;;;;;5041265;28;20228;-91
2023/01/14 02:59:10;;;;;;;9.33;0.73;;;7.60;99.90;;;;;;5058992;28;20666;-91
2023/01/14 03:01:55;;;;;;;1.80;0.70;;;7.60;99.90;;;;;;5060740;28;20173;-92
2023/01/14 03:04:42;;;;;;;5.10;2.33;;;7.60;99.90;;;;;;5058390;28;20424;-91
2023/01/14 03:07:29;;;;;;;0.90;0.90;;;7.60;99.90;;;;;;5057192;28;20220;-92
2023/01/14 03:10:01;;;;;;;8.67;1.87;;;7.60;99.90;;;;;;5055973;28;20308;-91
2023/01/14 03:12:30;;;;;;;0.83;0.83;;;7.50;99.90;;;;;;5052191;28;20214;-89
2023/01/14 03:15:26;;;;;;;0.77;0.77;;;7.50;99.90;;;;;;5053578;28;20382;-89
2023/01/14 03:18:00;;;;;;;1.13;1.13;;;7.50;99.90;;;;;;5056530;28;20237;-91
2023/01/14 03:20:31;;;;;;;0.50;0.50;;;7.40;99.90;;;;;;5058732;28;20233;-91
2023/01/14 03:23:02;;;;;;;0.57;0.57;;;7.30;99.90;;;;;;5053940;28;20216;-91
2023/01/14 03:25:29;;;;;;;1.57;1.40;;;7.30;99.90;;;;;;5051490;28;20194;-91
2023/01/14 03:27:58;;;;;;;0.27;0.27;;;7.20;99.90;;;;;;5044896;28;20199;-92
2023/01/14 03:30:31;;;;;;;12.83;1.93;;;7.10;99.90;;;;;;5056604;28;20740;-89
2023/01/14 03:33:02;;;;;;;0.20;0.20;;;7.10;99.90;;;;;;5063905;28;20245;-90
2023/01/14 03:35:33;;;;;;;1.50;1.30;;;7.00;99.90;;;;;;5057841;28;20307;-89
2023/01/14 03:38:08;;;;;;;4.17;0.93;;;7.00;99.90;;;;;;5057114;28;20221;-89
2023/01/14 03:40:36;;;;;;;3.00;0.73;;;7.00;99.90;;;;;;5055070;28;20248;-90
2023/01/14 03:43:14;;;;;;;13.07;2.83;;;7.00;99.90;;;;;;5050053;28;20186;-91
2023/01/14 03:45:41;;;;;;;4.17;1.20;;;7.00;99.90;;;;;;5054308;28;20217;-90
2023/01/14 03:48:09;;;;;;;1.50;0.53;;;6.90;99.90;;;;;;5055820;28;20218;-90
2023/01/14 03:50:52;;;;;;;0.30;0.30;;;6.90;99.90;;;;;;5043045;28;20232;-90
2023/01/14 03:53:24;;;;;;;2.83;0.70;;;7.00;99.90;;;;;;5055278;28;20678;-89
2023/01/14 03:56:05;;;;;;;6.97;1.20;;;6.90;99.90;;;;;;5055978;28;20205;-90
2023/01/14 03:58:31;;;;;;;1.60;1.17;;;6.90;99.90;;;;;;5057144;28;20280;-88
2023/01/14 04:01:05;;;;;;;1.13;0.77;;;6.80;99.90;;;;;;5057503;28;20280;-90
2023/01/14 04:03:31;;;;;;;4.37;1.27;;;6.80;99.90;;;;;;5054255;28;20828;-89
2023/01/14 04:05:58;;;;;;;2.53;1.70;;;6.70;99.90;;;;;;5052319;28;20222;-91
2023/01/14 04:08:25;;;;;;;0.73;0.40;;;6.70;99.90;;;;;;5053873;28;20210;-90
2023/01/14 04:10:51;;;;;;;0.90;0.90;;;6.60;99.90;;;;;;5050184;28;20235;-89
2023/01/14 04:16:02;;;;;;;1.10;1.00;;;6.50;99.90;;;;;;5057598;28;20650;-91
2023/01/14 04:18:28;;;;;;;1.40;0.50;;;6.40;99.90;;;;;;5034774;28;20225;-89
2023/01/14 04:20:54;;;;;;;4.37;1.63;;;6.40;99.90;;;;;;5039535;28;20283;-90
2023/01/14 04:23:20;;;;;;;0.77;0.77;;;6.30;99.90;;;;;;5021056;28;20218;-89
2023/01/14 04:25:46;;;;;;;0.60;0.60;;;6.30;99.90;;;;;;5039714;28;20185;-91
2023/01/14 04:28:11;;;;;;;1.33;1.20;;;6.30;99.90;;;;;;5036715;28;20192;-91
2023/01/14 04:30:37;;;;;;;3.10;1.23;;;6.30;99.90;;;;;;5060386;28;20229;-91
2023/01/14 04:33:03;;;;;;;1.40;1.27;;;6.30;99.90;;;;;;5041526;28;20225;-91
2023/01/14 04:35:29;;;;;;;5.20;1.60;;;6.30;99.90;;;;;;5050320;28;20393;-89
2023/01/14 04:37:55;;;;;;;1.10;0.70;;;6.30;99.90;;;;;;5022503;28;20256;-88
2023/01/14 04:40:21;;;;;;;20.57;1.47;;;6.30;99.90;;;;;;5036637;28;20303;-90
2023/01/14 04:42:48;;;;;;;4.17;3.50;;;6.30;99.90;;;;;;5024067;28;20772;-88
2023/01/14 04:45:14;;;;;;;1.30;0.73;;;6.30;99.90;;;;;;5057369;28;20292;-89
2023/01/14 04:47:40;;;;;;;6.10;1.20;;;6.30;99.90;;;;;;5036801;28;20251;-90
2023/01/14 04:52:51;;;;;;;1.20;0.77;;;6.40;99.90;;;;;;5051368;28;20262;-89
2023/01/14 04:55:17;;;;;;;1.37;1.37;;;6.40;99.90;;;;;;5051496;28;20217;-89
2023/01/14 04:57:43;;;;;;;0.77;0.77;;;6.40;99.90;;;;;;5052439;28;20279;-89
2023/01/14 05:00:10;;;;;;;1.97;0.40;;;6.40;99.90;;;;;;5053504;28;20722;-91
2023/01/14 05:02:36;;;;;;;5.30;0.60;;;6.40;99.90;;;;;;5036806;28;20308;-91
2023/01/14 05:05:05;;;;;;;5.20;2.40;;;6.40;99.90;;;;;;5024138;28;20310;-91
2023/01/14 05:07:30;;;;;;;1.93;1.77;;;6.40;99.90;;;;;;5039241;28;20182;-89
2023/01/14 05:09:56;;;;;;;13.40;2.53;;;6.40;99.90;;;;;;5038431;28;20201;-91
2023/01/14 05:12:22;;;;;;;2.83;2.03;;;6.40;99.90;;;;;;5036991;28;20221;-88
2023/01/14 05:14:47;;;;;;;0.43;0.43;;;6.40;99.90;;;;;;5052610;28;20354;-89
2023/01/14 05:17:13;;;;;;;2.10;1.33;;;6.40;99.90;;;;;;5017897;28;20631;-91
2023/01/14 05:19:39;;;;;;;8.63;1.70;;;6.40;99.90;;;;;;5018650;28;20209;-91
2023/01/14 05:22:05;;;;;;;8.03;0.73;;;6.40;99.90;;;;;;5020815;28;20825;-90
2023/01/14 05:24:30;;;;;;;8.10;0.83;;;6.50;99.90;;;;;;5040033;28;20250;-89
2023/01/14 05:26:58;;;;;;;19.33;1.43;;;6.50;99.90;;;;;;5051612;28;20210;-89
2023/01/14 05:29:24;;;;;;;2.43;0.80;;;6.50;99.90;;;;;;5051392;28;20236;-90
2023/01/14 05:31:49;;;;;;;1.63;1.53;;;6.50;99.90;;;;;;5038037;28;20217;-89
2023/01/14 05:34:17;;;;;;;1.17;1.10;;;6.60;99.90;;;;;;5018939;28;20190;-89
2023/01/14 05:36:43;;;;;;;4.70;1.73;;;6.60;99.90;;;;;;5039882;28;20467;-91
2023/01/14 05:39:09;;;;;;;9.63;0.93;;;6.60;99.90;;;;;;5019015;28;20246;-89
2023/01/14 05:41:35;;;;;;;1.30;1.20;;;6.60;99.90;;;;;;5053017;28;20218;-89
2023/01/14 05:46:45;;;;;;;1.63;0.97;;;6.70;99.90;;;;;;5034511;28;20173;-89
2023/01/14 05:49:11;;;;;;;2.57;0.57;;;6.80;99.90;;;;;;5040044;28;20189;-89
2023/01/14 05:51:36;;;;;;;0.87;0.83;;;6.80;99.90;;;;;;5038724;28;20219;-90
2023/01/14 05:54:02;;;;;;;5.43;2.67;;;6.80;99.90;;;;;;5033652;28;20270;-89
2023/01/14 05:56:28;;;;;;;3.70;1.33;;;6.80;99.90;;;;;;5036542;28;20286;-90
2023/01/14 05:58:54;;;;;;;0.43;0.43;;;6.80;99.90;;;;;;5052695;28;20301;-90
2023/01/14 06:06:50;;;;;;;0.90;0.57;;;6.80;99.90;;;;;;5051716;28;20529;-90
2023/01/14 06:09:17;;;;;;;2.63;2.00;;;6.80;99.90;;;;;;5052673;28;20268;-88
2023/01/14 06:12:01;;;;;;;17.10;0.67;;;6.80;99.90;;;;;;5054122;28;20221;-88
2023/01/14 06:14:32;;;;;;;0.87;0.87;;;6.80;99.90;;;;;;5053462;28;20201;-90
2023/01/14 06:16:59;;;;;;;2.30;1.90;;;6.80;99.90;;;;;;5052108;28;20566;-88
2023/01/14 06:19:25;;;;;;;3.63;1.03;;;6.80;99.90;;;;;;5054184;28;20236;-91
2023/01/14 06:21:50;;;;;;;1.13;0.83;;;6.80;99.90;;;;;;5021640;28;20233;-89
2023/01/14 06:24:16;;;;;;;13.13;0.50;;;6.80;99.90;;;;;;5035857;28;20228;-89
2023/01/14 06:26:42;;;;;;;1.13;1.03;;;6.70;99.90;;;;;;5039403;28;20252;-88
2023/01/14 06:29:10;;;;;;;0.93;0.93;;;6.70;99.90;;;;;;5050764;28;20275;-88
2023/01/14 06:31:37;;;;;;;0.67;0.67;;;6.70;99.90;;;;;;5051938;28;20186;-90
2023/01/14 06:34:03;;;;;;;0.50;0.50;;;6.70;99.90;;;;;;5040889;28;20194;-90
2023/01/14 06:36:31;;;;;;;1.60;1.40;;;6.70;99.90;;;;;;5053182;28;20221;-90
2023/01/14 06:38:57;;;;;;;1.13;1.03;;;6.70;99.90;;;;;;5052861;28;20228;-87
2023/01/14 06:41:23;;;;;;;2.03;1.50;;;6.70;99.90;;;;;;5049947;28;20664;-90
2023/01/14 06:43:49;;;;;;;2.33;1.87;;;6.70;99.90;;;;;;5052483;28;20729;-89
2023/01/14 06:46:16;;;;;;;0.73;0.53;;;6.70;99.90;;;;;;5050136;28;20185;-91
2023/01/14 06:48:43;;;;;;;0.73;0.73;;;6.80;99.90;;;;;;5047178;28;20224;-90
2023/01/14 06:51:12;;;;;;;0.60;0.60;;;6.80;99.90;;;;;;5052106;28;20815;-91
2023/01/14 06:53:38;;;;;;;0.33;0.33;;;6.80;99.90;;;;;;5057713;28;20228;-91
2023/01/14 06:56:10;;;;;;;5.33;1.50;;;6.80;99.90;;;;;;5055382;28;20227;-90
2023/01/14 06:58:35;;;;;;;2.23;2.13;;;6.80;99.90;;;;;;5055730;28;20185;-90
2023/01/14 07:01:01;;;;;;;1.23;1.13;;;6.80;99.90;;;;;;5025657;28;20303;-91
2023/01/14 07:03:28;;;;;;;5.70;0.60;;;6.80;99.90;;;;;;5052738;28;20228;-91
2023/01/14 07:05:54;;;;;;;1.10;1.00;;;6.80;99.90;;;;;;5053891;28;20408;-90
2023/01/14 07:08:20;;;;;;;1.03;0.93;;;6.80;99.90;;;;;;5029749;28;20218;-91
2023/01/14 07:10:51;;;;;;;1.87;1.77;;;6.80;99.90;;;;;;5040591;28;20190;-90
2023/01/14 07:13:19;;;;;;;3.77;1.33;;;6.80;99.90;;;;;;5054980;28;20899;-90
2023/01/14 07:15:45;;;;;;;1.00;1.00;;;6.80;99.90;;;;;;5058027;28;20236;-91
2023/01/14 07:18:11;;;;;;;4.20;1.40;;;6.90;99.90;;;;;;5055687;28;20753;-91
2023/01/14 07:20:38;;;;;;;1.50;1.40;;;6.90;99.90;;;;;;5053433;28;20221;-90
2023/01/14 07:23:04;;;;;;;2.50;2.40;;;6.90;99.90;;;;;;5039128;28;20762;-91
2023/01/14 07:25:29;;;;;;;1.90;1.90;;;6.90;99.90;;;;;;5042288;28;20305;-90
2023/01/14 07:27:55;;;;;;;1.43;0.77;;;6.90;99.90;;;;;;5052412;28;20216;-91
2023/01/14 07:30:21;;;;;;;1.37;1.27;;;6.90;99.90;;;;;;5053897;28;20230;-91
2023/01/14 07:32:47;;;;;;;1.87;1.77;;;6.90;99.90;;;;;;5056054;28;20209;-90
2023/01/14 07:35:13;;;;;;;0.67;0.53;;;6.80;99.90;;;;;;5030148;28;20691;-90
2023/01/14 07:37:39;;;;;;;2.57;2.03;;;6.90;99.90;;;;;;5049688;28;20205;-89
2023/01/14 07:40:05;;;;;;;3.20;2.53;;;6.90;99.90;;;;;;5053699;28;20236;-91
2023/01/14 07:42:31;;;;;;;37.57;4.70;;;6.80;99.90;;;;;;5053278;28;20214;-91
2023/01/14 07:44:57;;;;;;;1.27;1.17;;;6.90;99.90;;;;;;5055607;28;20830;-87
2023/01/14 07:47:23;;;;;;;1.00;1.00;;;6.90;99.90;;;;;;5025645;28;20746;-89
2023/01/14 07:49:49;;;;;;;4.50;2.37;;;6.90;99.90;;;;;;5053970;28;21149;-88
2023/01/14 07:52:14;;;;;;;0.97;0.97;;;6.90;99.90;;;;;;5038283;28;20263;-87
2023/01/14 07:54:41;;;;;;;0.70;0.70;;;6.90;99.90;;;;;;5052801;28;20209;-89
2023/01/14 07:57:11;;;;;;;7.50;3.17;;;6.90;99.90;;;;;;5055241;28;20218;-88
2023/01/14 07:59:38;;;;;;;2.33;2.23;;;6.90;99.90;;;;;;5039526;28;20221;-88
2023/01/14 08:02:08;;;;;;;0.70;0.70;;;6.90;99.90;;;;;;5054655;28;20368;-91
2023/01/14 08:04:34;;;;;;;6.60;1.63;;;6.90;99.90;;;;;;5052990;28;20196;-88
2023/01/14 08:07:00;;;;;;;2.50;1.73;;;6.90;99.90;;;;;;5037324;28;20185;-88
2023/01/14 08:09:26;;;;;;;6.63;1.70;;;6.90;99.90;;;;;;5023769;28;20229;-91
2023/01/14 08:11:53;;;;;;;6.40;1.10;;;7.00;99.90;;;;;;5038781;28;20218;-89
2023/01/14 08:14:18;;;;;;;1.83;1.50;;;6.90;99.90;;;;;;5055535;28;20232;-88
2023/01/14 08:16:44;;;;;;;6.40;2.30;;;6.90;99.90;;;;;;5038260;28;20180;-90
2023/01/14 08:19:12;;;;;;;6.53;2.93;;;6.90;99.90;;;;;;5054848;28;20259;-88
2023/01/14 08:21:38;;;;;;;4.47;3.13;;;6.90;99.90;;;;;;5054931;28;20606;-89
2023/01/14 08:24:04;;;;;;;8.30;1.77;;;6.90;99.90;;;;;;5054229;28;20228;-90
2023/01/14 08:26:30;;;;;;;2.10;1.33;;;6.90;99.90;;;;;;5040399;28;20351;-88
2023/01/14 08:28:55;;;;;;;5.83;1.67;;;6.90;99.90;;;;;;5025341;28;20228;-89
2023/01/14 08:31:21;;;;;;;5.10;1.47;;;6.90;99.90;;;;;;5029865;28;20182;-88
2023/01/14 08:33:47;;;;;;;2.10;1.97;;;6.90;99.90;;;;;;5054369;28;20217;-89
2023/01/14 08:36:16;;;;;;;8.60;1.60;;;6.90;99.90;;;;;;5039296;28;20350;-89
2023/01/14 08:38:44;;;;;;;9.03;1.40;;;6.90;99.90;;;;;;5056648;28;20217;-88
2023/01/14 08:41:13;;;;;;;2.50;1.20;;;6.90;99.90;;;;;;5054416;28;20232;-86
2023/01/14 08:43:40;;;;;;;2.33;1.70;;;6.90;99.90;;;;;;5053508;28;20636;-87
2023/01/14 08:46:07;;;;;;;1.67;1.33;;;6.80;99.90;;;;;;5053752;28;20188;-88
2023/01/14 08:48:33;;;;;;;1.43;1.40;;;6.80;99.90;;;;;;5054872;28;20296;-87
2023/01/14 08:51:04;;;;;;;1.17;0.47;;;6.80;99.90;;;;;;5039163;28;20336;-88
2023/01/14 08:53:31;;;;;;;5.43;0.57;;;6.80;99.90;;;;;;5053768;28;20213;-87
2023/01/14 08:56:00;;;;;;;0.53;0.53;;;6.80;99.90;;;;;;5039566;28;20577;-88
2023/01/14 08:58:26;;;;;;;1.00;0.97;;;6.80;99.90;;;;;;5052804;28;20665;-86
2023/01/14 09:01:05;;;;;;;0.50;0.50;;;6.80;99.90;;;;;;5040128;28;20233;-86
2023/01/14 09:03:32;;;;;;;0.47;0.47;;;6.80;99.90;;;;;;5062098;28;20417;-89
2023/01/14 09:06:03;;;;;;;0.70;0.70;;;6.80;99.90;;;;;;5023203;28;20328;-88
2023/01/14 09:17:05;;;;;;;1.53;1.53;;;6.80;99.90;;;;;;5052869;28;20237;-87
2023/01/14 09:19:50;;;;;;;1.03;0.73;;;6.80;99.90;;;;;;5038642;28;20204;-87
2023/01/14 09:22:25;;;;;;;2.57;1.57;;;6.80;99.90;;;;;;5052929;28;20200;-88
2023/01/14 09:24:51;;;;;;;4.13;1.47;;;6.80;99.90;;;;;;5051847;28;20338;-87
2023/01/14 09:27:18;;;;;;;1.23;1.13;;;6.80;99.90;;;;;;5040540;28;20867;-87
2023/01/14 09:29:44;;;;;;;0.67;0.47;;;6.90;99.90;;;;;;5077505;28;20218;-88
2023/01/14 09:32:11;;;;;;;0.20;0.20;;;6.80;99.90;;;;;;5016023;28;20231;-88
2023/01/14 09:34:42;;;;;;;0.40;0.40;;;6.90;99.90;;;;;;5055305;28;20232;-88
2023/01/14 09:37:09;;;;;;;0.57;0.57;;;6.90;99.90;;;;;;5062249;28;20177;-87
2023/01/14 09:39:35;;;;;;;0.80;0.80;;;6.90;99.90;;;;;;5034006;28;20229;-87
2023/01/14 09:42:07;;;;;;;1.17;0.93;;;6.90;99.90;;;;;;5050147;28;20249;-88
2023/01/14 09:44:33;;;;;;;0.80;0.80;;;6.90;99.90;;;;;;5051054;28;20221;-87
2023/01/14 09:46:59;;;;;;;2.10;2.00;;;6.90;99.90;;;;;;5035479;28;20266;-87
2023/01/14 09:49:27;;;;;;;0.30;0.30;;;6.90;99.90;;;;;;5053623;28;20189;-88
2023/01/14 09:52:31;;;;;;;8.87;8.40;;;6.90;99.90;;;;;;5056954;28;20225;-89
2023/01/14 09:55:15;;;;;;;9.73;1.23;;;7.00;99.90;;;;;;5052836;28;20217;-88
2023/01/14 09:57:52;;;;;;;0.80;0.40;;;7.00;99.90;;;;;;5054266;28;20700;-88
2023/01/14 10:00:30;;;;;;;0.90;0.70;;;7.10;99.90;;;;;;5053918;28;20624;-88
2023/01/14 10:03:30;;;;;;;0.27;0.27;;;7.10;99.90;;;;;;5051337;28;20229;-87
2023/01/14 10:06:03;;;;;;;0.40;0.33;;;7.10;99.90;;;;;;5053752;28;20239;-88
2023/01/14 10:08:46;;;;;;;0.50;0.50;;;7.10;99.90;;;;;;5056149;28;20270;-88
2023/01/14 10:11:13;;;;;;;1.80;1.80;;;7.20;99.90;;;;;;5057164;28;20217;-88
2023/01/14 10:13:54;;;;;;;0.20;0.20;;;7.20;99.90;;;;;;5033337;28;20182;-89
2023/01/14 10:16:31;;;;;;;0.30;0.30;;;7.20;99.90;;;;;;5054385;28;20182;-89
2023/01/14 10:19:12;;;;;;;0.40;0.40;;;7.30;99.90;;;;;;5055798;28;20213;-89
2023/01/14 10:21:46;;;;;;;0.60;0.60;;;7.30;99.90;;;;;;5074865;28;20306;-88
2023/01/14 10:24:18;;;;;;;3.73;0.30;;;7.30;99.90;;;;;;5052105;28;20466;-90
2023/01/14 10:26:46;;;;;;;1.27;0.83;;;7.40;99.90;;;;;;5038058;28;20214;-88
2023/01/14 10:29:18;;;;;;;0.73;0.70;;;7.40;99.90;;;;;;5053341;28;20342;-87
2023/01/14 10:31:53;;;;;;;0.80;0.67;;;7.50;99.90;;;;;;5048960;28;20185;-89
2023/01/14 10:34:31;;;;;;;2.50;1.53;;;7.50;99.90;;;;;;5057117;28;20184;-89
2023/01/14 10:36:57;;;;;;;0.70;0.70;;;7.50;99.90;;;;;;5080634;28;20217;-89
2023/01/14 10:39:23;;;;;;;0.30;0.30;;;7.60;99.90;;;;;;5039961;28;20232;-89
2023/01/14 10:41:49;;;;;;;1.27;1.20;;;7.60;99.90;;;;;;5022618;28;20329;-89
2023/01/14 10:44:23;;;;;;;1.27;1.10;;;7.60;99.90;;;;;;5038820;28;20351;-86
2023/01/14 10:46:56;;;;;;;0.87;0.87;;;7.70;99.90;;;;;;5052289;28;20217;-89
2023/01/14 10:49:30;;;;;;;4.03;0.47;;;7.60;99.90;;;;;;5048987;28;20185;-89
2023/01/14 10:51:57;;;;;;;0.50;0.50;;;7.70;99.90;;;;;;5057931;28;20214;-88
2023/01/14 10:54:27;;;;;;;0.97;0.97;;;7.60;99.90;;;;;;5026950;28;20218;-89
2023/01/14 10:56:56;;;;;;;0.57;0.40;;;7.60;99.90;;;;;;5056612;28;20354;-88
2023/01/14 10:59:43;;;;;;;0.87;0.63;;;7.60;99.90;;;;;;5055042;28;20230;-89
2023/01/14 11:02:48;;;;;;;5.93;0.83;;;7.60;99.90;;;;;;5059035;28;20240;-88
2023/01/14 11:05:32;;;;;;;0.80;0.43;;;7.60;99.90;;;;;;5011798;28;20214;-87
2023/01/14 11:08:05;;;;;;;0.30;0.30;;;7.70;99.90;;;;;;5056913;28;20926;-85
2023/01/14 11:10:31;;;;;;;0.30;0.30;;;7.60;99.90;;;;;;5057419;28;20204;-88
2023/01/14 11:13:30;;;;;;;0.43;0.43;;;7.60;99.90;;;;;;5056525;28;20174;-88
2023/01/14 11:15:57;;;;;;;0.20;0.20;;;7.70;99.90;;;;;;5053635;28;20206;-88
2023/01/14 11:18:27;;;;;;;0.27;0.27;;;7.70;99.90;;;;;;5056104;28;20308;-88
2023/01/14 11:21:03;;;;;;;0.60;0.60;;;7.70;99.90;;;;;;5054966;28;20262;-90
2023/01/14 11:23:32;;;;;;;0.37;0.37;;;7.80;99.90;;;;;;5063908;28;20213;-88
2023/01/14 11:26:03;;;;;;;0.70;0.70;;;7.80;99.90;;;;;;5056200;28;20221;-88
2023/01/14 11:28:29;;;;;;;0.90;0.83;;;7.80;99.90;;;;;;5057671;28;20175;-88
2023/01/14 11:30:56;;;;;;;0.60;0.60;;;7.80;99.90;;;;;;5037983;28;20214;-87
2023/01/14 11:33:25;;;;;;;0.23;0.23;;;7.80;99.90;;;;;;5028638;28;20675;-88
2023/01/14 11:35:54;;;;;;;1.37;1.00;;;7.80;99.90;;;;;;5053341;28;20211;-89
2023/01/14 11:38:21;;;;;;;0.30;0.30;;;7.90;99.90;;;;;;5059002;28;20488;-90
2023/01/14 11:43:58;;;;;;;0.40;0.40;;;7.90;99.90;;;;;;5054885;28;20218;-89
2023/01/14 11:46:24;;;;;;;0.30;0.30;;;7.90;99.90;;;;;;5055019;28;20193;-89
2023/01/14 11:49:18;;;;;;;4.53;1.50;;;7.90;99.90;;;;;;5022616;28;20317;-89
2023/01/14 11:52:02;;;;;;;3.37;1.33;;;7.90;99.90;;;;;;5056168;28;20217;-89
2023/01/14 11:54:41;;;;;;;0.40;0.40;;;8.00;99.90;;;;;;5062562;28;20228;-88
2023/01/14 11:57:19;;;;;;;0.30;0.30;;;8.00;99.90;;;;;;5048959;28;20221;-88
2023/01/14 11:59:46;;;;;;;0.30;0.30;;;8.10;99.90;;;;;;5078065;28;20233;-87
2023/01/14 12:02:27;;;;;;;0.50;0.50;;;8.10;99.90;;;;;;5041722;28;20807;-87
2023/01/14 12:05:30;;;;;;;0.40;0.40;;;8.10;99.90;;;;;;5052408;28;20241;-89
2023/01/14 12:08:01;;;;;;;1.53;1.43;;;8.10;99.90;;;;;;5023442;28;20258;-88
2023/01/14 12:10:39;;;;;;;0.50;0.50;;;8.10;99.90;;;;;;5045831;28;20254;-89
2023/01/14 12:19:20;;;;;;;1.13;0.40;;;8.30;99.90;;;;;;5054467;28;20650;-87
2023/01/14 12:22:00;;;;;;;0.50;0.50;;;8.40;99.90;;;;;;5053749;28;20210;-89
2023/01/14 12:24:56;;;;;;;0.50;0.50;;;8.40;99.90;;;;;;5057438;28;20240;-87
2023/01/14 12:27:44;;;;;;;1.63;1.07;;;8.40;99.90;;;;;;5056126;28;20229;-88
2023/01/14 12:30:25;;;;;;;0.60;0.60;;;8.50;99.90;;;;;;5053484;28;20279;-87
2023/01/14 12:32:52;;;;;;;0.50;0.50;;;8.60;99.90;;;;;;5055995;28;20213;-86
2023/01/14 12:35:19;;;;;;;0.53;0.40;;;8.60;99.90;;;;;;5052142;28;20316;-88
2023/01/14 12:37:55;;;;;;;1.93;1.40;;;8.60;99.90;;;;;;5053764;28;20712;-88
2023/01/14 12:46:18;;;;;;;0.53;0.53;;;8.80;99.90;;;;;;5056454;28;20650;-89
2023/01/14 12:48:45;;;;;;;0.70;0.70;;;8.80;99.90;;;;;;5029992;28;20209;-89
2023/01/14 12:51:22;;;;;;;3.07;0.60;;;8.90;99.90;;;;;;5055604;28;20316;-87
2023/01/14 12:53:52;;;;;;;0.40;0.40;;;9.00;99.90;;;;;;5055191;28;20224;-87
2023/01/14 12:56:28;;;;;;;3.47;2.47;;;9.00;99.90;;;;;;5052399;28;20408;-88
2023/01/14 12:59:18;;;;;;;0.73;0.70;;;9.10;99.90;;;;;;5057530;28;20676;-88
2023/01/14 13:01:55;;;;;;;1.57;1.03;;;9.20;99.90;;;;;;5055705;28;20189;-88
2023/01/14 13:04:34;;;;;;;2.17;1.40;;;9.20;99.90;;;;;;5063679;28;20245;-88
2023/01/14 13:07:05;;;;;;;3.60;2.07;;;9.30;99.90;;;;;;5057442;28;20224;-87
2023/01/14 13:09:56;;;;;;;2.70;1.97;;;9.30;99.90;;;;;;5052438;28;20272;-89
2023/01/14 13:12:30;;;;;;;3.10;0.90;;;9.40;99.90;;;;;;5057315;28;20748;-89
2023/01/14 13:15:06;;;;;;;0.53;0.53;;;9.40;99.90;;;;;;5053726;28;20220;-86
2023/01/14 13:17:35;;;;;;;3.20;2.43;;;9.50;99.90;;;;;;5052512;28;20221;-87
2023/01/14 13:20:03;;;;;;;2.13;1.37;;;9.50;99.90;;;;;;5069552;28;20217;-89
2023/01/14 13:22:41;;;;;;;1.10;1.03;;;9.50;99.90;;;;;;5051073;28;20190;-88
2023/01/14 13:25:08;;;;;;;1.13;0.80;;;9.50;99.90;;;;;;5053145;28;20197;-88
2023/01/14 13:27:35;;;;;;;2.47;2.33;;;9.60;99.90;;;;;;5055888;28;20253;-85
2023/01/14 13:30:19;;;;;;;1.33;1.23;;;9.60;99.90;;;;;;5052094;28;20665;-87
2023/01/14 13:33:29;;;;;;;0.90;0.87;;;9.70;99.90;;;;;;5057754;28;20267;-88
2023/01/14 13:36:10;;;;;;;0.50;0.33;;;9.80;99.90;;;;;;5052022;28;20214;-87
2023/01/14 13:38:57;;;;;;;1.43;0.70;;;9.80;99.90;;;;;;5052255;28;20678;-88
2023/01/14 13:41:50;;;;;;;1.37;1.10;;;9.80;99.90;;;;;;5057313;28;20256;-89
2023/01/14 13:44:23;;;;;;;1.30;1.30;;;9.90;99.90;;;;;;5074821;28;20225;-90
2023/01/14 13:46:58;;;;;;;1.70;1.17;;;9.90;99.90;;;;;;5053232;28;20259;-89
2023/01/14 13:49:27;;;;;;;0.70;0.70;;;9.90;99.90;;;;;;5052378;28;20200;-89
2023/01/14 13:52:05;;;;;;;1.27;0.67;;;10.00;99.90;;;;;;5052841;28;20214;-88
2023/01/14 13:54:34;;;;;;;4.57;1.43;;;10.00;99.90;;;;;;5054148;28;20222;-90
2023/01/14 13:57:18;;;;;;;0.50;0.50;;;10.00;99.90;;;;;;5051411;28;20224;-89
2023/01/14 13:59:51;;;;;;;0.77;0.77;;;10.10;99.90;;;;;;5054248;28;20318;-89